Time;durP1;ratioP1;P1;durP2;ratioP2;P2;SDS_P1;SDS_P2;PMS_P1;PMS_P2;Temp;Humidity;BMP_temperature;BMP_pressure;BME280_temperature;BME280_humidity;BME280_pressure;Samples;Min_cycle;Max_cycle;Signal;HPM_P1;HPM_P2
2021/06/02 00:01:55;;;;;;;6.10;5.60;;;14.50;99.90;;;;;;5049045;28;20712;-81
2021/06/02 00:04:25;;;;;;;9.00;6.80;;;14.40;99.90;;;;;;5050763;28;20239;-80
2021/06/02 00:06:58;;;;;;;8.57;7.07;;;14.40;99.90;;;;;;5053211;28;20772;-80
2021/06/02 00:09:27;;;;;;;7.27;6.57;;;14.30;99.90;;;;;;5066843;28;20335;-80
2021/06/02 00:11:58;;;;;;;7.60;6.80;;;14.20;99.90;;;;;;5053368;28;20313;-80
2021/06/02 00:14:27;;;;;;;9.63;6.63;;;14.20;99.90;;;;;;5042212;28;20227;-80
2021/06/02 00:16:56;;;;;;;8.60;7.23;;;14.20;99.90;;;;;;5050051;28;20263;-80
2021/06/02 00:19:24;;;;;;;8.07;7.27;;;14.20;99.90;;;;;;5049914;28;20231;-80
2021/06/02 00:21:53;;;;;;;7.83;7.03;;;14.20;99.90;;;;;;5050331;28;20236;-80
2021/06/02 00:24:21;;;;;;;11.13;7.37;;;14.10;99.90;;;;;;5058442;28;20290;-80
2021/06/02 00:26:53;;;;;;;9.80;7.53;;;14.00;99.90;;;;;;5051766;28;20315;-80
2021/06/02 00:29:26;;;;;;;8.87;7.40;;;14.10;99.90;;;;;;5051894;28;20310;-80
2021/06/02 00:31:54;;;;;;;7.40;6.40;;;14.10;99.90;;;;;;5048316;28;20258;-81
2021/06/02 00:34:24;;;;;;;9.47;7.33;;;14.00;99.90;;;;;;5050126;28;20234;-80
2021/06/02 00:36:52;;;;;;;7.97;6.70;;;14.00;99.90;;;;;;5052725;28;20683;-80
2021/06/02 00:39:22;;;;;;;8.03;6.93;;;14.00;99.90;;;;;;5058548;28;20318;-81
2021/06/02 00:41:50;;;;;;;7.77;6.43;;;14.00;99.90;;;;;;5049398;28;20236;-80
2021/06/02 00:44:19;;;;;;;10.70;7.20;;;14.00;99.90;;;;;;5050814;28;20246;-80
2021/06/02 00:46:49;;;;;;;9.90;6.97;;;14.00;99.90;;;;;;5049652;28;20243;-81
2021/06/02 00:49:23;;;;;;;10.30;7.43;;;13.90;99.90;;;;;;5049547;28;20258;-80
2021/06/02 00:51:54;;;;;;;9.00;7.03;;;13.90;99.90;;;;;;5051567;28;20242;-80
2021/06/02 00:54:23;;;;;;;7.77;6.70;;;13.80;99.90;;;;;;5049839;28;20704;-80
2021/06/02 00:56:53;;;;;;;8.87;6.90;;;13.70;99.90;;;;;;5064590;28;20322;-79
2021/06/02 00:59:29;;;;;;;7.90;6.50;;;13.50;99.90;;;;;;5066608;28;20238;-79
2021/06/02 01:01:59;;;;;;;7.73;6.33;;;13.40;99.90;;;;;;5049530;28;20574;-80
2021/06/02 01:04:28;;;;;;;10.27;6.90;;;13.50;99.90;;;;;;5049392;28;20315;-79
2021/06/02 01:06:56;;;;;;;7.00;6.13;;;13.40;99.90;;;;;;5049413;28;20258;-79
2021/06/02 01:09:25;;;;;;;8.90;6.40;;;13.50;99.90;;;;;;5049173;28;20317;-80
2021/06/02 01:11:54;;;;;;;7.20;6.17;;;13.50;99.90;;;;;;5049663;28;20246;-81
2021/06/02 01:14:22;;;;;;;7.33;6.00;;;13.60;99.90;;;;;;5049860;28;20246;-79
2021/06/02 01:16:50;;;;;;;7.73;6.07;;;13.60;99.90;;;;;;5051567;28;20243;-81
2021/06/02 01:19:22;;;;;;;7.90;5.80;;;13.50;99.90;;;;;;5066626;28;20242;-80
2021/06/02 01:21:56;;;;;;;9.07;5.63;;;13.50;99.90;;;;;;5051413;28;20240;-81
2021/06/02 01:24:27;;;;;;;7.53;5.10;;;13.40;99.90;;;;;;5050740;28;20235;-80
2021/06/02 01:26:56;;;;;;;5.47;4.30;;;13.40;99.90;;;;;;5058175;28;20726;-79
2021/06/02 01:29:26;;;;;;;7.43;5.10;;;13.40;99.90;;;;;;5047512;28;20769;-80
2021/06/02 01:32:18;;;;;;;5.50;4.30;;;13.40;99.90;;;;;;5051789;28;20262;-80
2021/06/02 01:35:25;;;;;;;4.70;3.57;;;13.40;99.90;;;;;;5043426;28;20296;-81
2021/06/02 01:38:25;;;;;;;4.20;3.60;;;13.40;99.90;;;;;;5064013;28;20231;-80
2021/06/02 01:41:21;;;;;;;5.20;3.80;;;13.30;99.90;;;;;;5044555;28;20633;-80
2021/06/02 01:44:21;;;;;;;4.87;3.30;;;13.40;99.90;;;;;;5056230;28;20326;-80
2021/06/02 01:47:02;;;;;;;5.13;3.57;;;13.30;99.90;;;;;;5050787;28;20244;-80
2021/06/02 01:49:53;;;;;;;3.43;2.90;;;13.30;99.90;;;;;;5068832;28;20237;-81
2021/06/02 01:52:59;;;;;;;3.50;3.20;;;13.20;99.90;;;;;;5065922;28;20227;-80
2021/06/02 01:56:08;;;;;;;3.00;2.80;;;13.10;99.90;;;;;;5040875;28;20292;-80
2021/06/02 01:59:09;;;;;;;2.73;2.53;;;13.10;99.90;;;;;;5052153;28;20270;-80
2021/06/02 02:01:54;;;;;;;3.10;2.73;;;13.00;99.90;;;;;;5029118;28;20634;-80
2021/06/02 02:05:01;;;;;;;3.97;2.30;;;13.00;99.90;;;;;;5050586;28;20686;-80
2021/06/02 02:07:44;;;;;;;3.50;2.90;;;13.00;99.90;;;;;;5050889;28;20235;-80
2021/06/02 02:10:33;;;;;;;4.13;2.43;;;12.90;99.90;;;;;;5051347;28;20241;-80
2021/06/02 02:13:20;;;;;;;3.43;2.20;;;12.90;99.90;;;;;;5056105;28;20247;-80
2021/06/02 02:16:09;;;;;;;2.43;2.20;;;12.80;99.90;;;;;;5052487;28;20276;-80
2021/06/02 02:18:46;;;;;;;5.13;2.33;;;12.90;99.90;;;;;;5064141;28;20238;-79
2021/06/02 02:21:32;;;;;;;3.30;1.83;;;12.80;99.90;;;;;;5051210;28;20270;-79
2021/06/02 02:24:03;;;;;;;3.40;1.80;;;12.90;99.90;;;;;;5084488;28;20249;-79
2021/06/02 02:26:41;;;;;;;2.63;1.90;;;12.70;99.90;;;;;;5060188;28;20641;-79
2021/06/02 02:29:22;;;;;;;2.47;1.80;;;12.70;99.90;;;;;;5042039;28;20246;-80
2021/06/02 02:32:17;;;;;;;2.00;1.80;;;12.70;99.90;;;;;;5052039;28;20239;-79
2021/06/02 02:34:58;;;;;;;4.00;1.90;;;12.70;99.90;;;;;;5065036;28;20766;-79
2021/06/02 02:37:35;;;;;;;3.13;1.67;;;12.70;99.90;;;;;;5051755;28;20257;-80
2021/06/02 02:40:06;;;;;;;3.33;1.97;;;12.80;99.90;;;;;;5050930;28;20669;-80
2021/06/02 02:42:43;;;;;;;1.90;1.63;;;12.70;99.90;;;;;;5055661;28;20281;-80
2021/06/02 02:45:24;;;;;;;3.37;1.60;;;12.70;99.90;;;;;;5052252;28;20238;-79
2021/06/02 02:48:09;;;;;;;5.37;1.70;;;12.70;99.90;;;;;;5055175;28;20250;-80
2021/06/02 02:50:44;;;;;;;2.87;1.40;;;12.70;99.90;;;;;;5067407;28;20620;-79
2021/06/02 02:53:24;;;;;;;2.70;1.40;;;12.70;99.90;;;;;;5052232;28;20242;-79
2021/06/02 02:56:00;;;;;;;2.80;1.73;;;12.80;99.90;;;;;;5051947;28;20232;-80
2021/06/02 02:58:36;;;;;;;2.20;1.73;;;12.60;99.90;;;;;;5055365;28;20235;-79
2021/06/02 03:01:16;;;;;;;3.73;1.57;;;12.70;99.90;;;;;;5048389;28;20238;-80
2021/06/02 03:03:48;;;;;;;2.30;1.33;;;12.70;99.90;;;;;;5051799;28;20246;-79
2021/06/02 03:06:25;;;;;;;2.40;1.50;;;12.60;99.90;;;;;;5051921;28;20243;-80
2021/06/02 03:08:58;;;;;;;2.03;1.80;;;12.60;99.90;;;;;;5070925;28;20303;-81
2021/06/02 03:11:32;;;;;;;4.67;1.60;;;12.50;99.90;;;;;;5061002;28;20720;-79
2021/06/02 03:14:08;;;;;;;2.07;1.20;;;12.50;99.90;;;;;;5051211;28;20284;-80
2021/06/02 03:16:41;;;;;;;2.57;1.60;;;12.50;99.90;;;;;;5052951;28;20258;-79
2021/06/02 03:19:13;;;;;;;2.23;1.20;;;12.40;99.90;;;;;;5057809;28;20230;-79
2021/06/02 03:22:01;;;;;;;3.90;1.33;;;12.40;99.90;;;;;;5056698;28;20230;-80
2021/06/02 03:24:48;;;;;;;2.70;1.50;;;12.40;99.90;;;;;;5043528;28;20685;-79
2021/06/02 03:27:26;;;;;;;2.43;1.50;;;12.40;99.90;;;;;;5070004;28;20250;-80
2021/06/02 03:30:10;;;;;;;2.80;1.30;;;12.40;99.90;;;;;;5051370;28;20808;-79
2021/06/02 03:32:59;;;;;;;3.43;1.30;;;12.40;99.90;;;;;;5050671;28;20891;-81
2021/06/02 03:35:35;;;;;;;3.83;1.60;;;12.40;99.90;;;;;;5043120;28;20299;-80
2021/06/02 03:38:12;;;;;;;2.30;1.40;;;12.30;99.90;;;;;;5052874;28;20726;-79
2021/06/02 03:40:53;;;;;;;1.40;1.30;;;12.50;99.90;;;;;;5066134;28;20246;-80
2021/06/02 03:43:26;;;;;;;2.83;1.50;;;12.40;99.90;;;;;;5052522;28;20239;-80
2021/06/02 03:46:08;;;;;;;2.63;1.40;;;12.40;99.90;;;;;;5051262;28;20240;-79
2021/06/02 03:48:45;;;;;;;3.37;1.60;;;12.50;99.90;;;;;;5050418;28;20292;-80
2021/06/02 03:51:34;;;;;;;1.60;1.50;;;12.50;99.90;;;;;;5051214;28;20237;-80
2021/06/02 03:54:13;;;;;;;3.10;1.40;;;12.50;99.90;;;;;;5047694;28;20266;-80
2021/06/02 03:57:16;;;;;;;2.53;1.50;;;12.60;99.90;;;;;;5050693;28;20246;-80
2021/06/02 03:59:45;;;;;;;2.73;1.50;;;12.60;99.90;;;;;;5026245;28;20301;-79
2021/06/02 04:02:27;;;;;;;2.63;1.70;;;12.60;99.90;;;;;;5050872;28;20235;-80
2021/06/02 04:05:19;;;;;;;2.03;1.50;;;12.60;99.90;;;;;;5050807;28;20247;-79
2021/06/02 04:07:57;;;;;;;1.50;1.30;;;12.70;99.90;;;;;;5050030;28;20705;-80
2021/06/02 04:10:35;;;;;;;2.50;1.57;;;12.80;99.90;;;;;;5042229;28;20238;-80
2021/06/02 04:13:12;;;;;;;2.03;1.50;;;12.90;99.90;;;;;;5050239;28;20300;-80
2021/06/02 04:15:47;;;;;;;1.70;1.50;;;12.90;99.90;;;;;;5062031;28;20246;-80
2021/06/02 04:18:19;;;;;;;2.20;1.57;;;12.90;99.90;;;;;;5065390;28;20247;-80
2021/06/02 04:20:48;;;;;;;3.50;1.83;;;13.10;99.90;;;;;;5050050;28;20714;-80
2021/06/02 04:23:17;;;;;;;4.67;2.43;;;13.00;99.90;;;;;;5050506;28;20318;-80
2021/06/02 04:25:47;;;;;;;4.23;1.50;;;13.10;99.90;;;;;;5050404;28;20320;-80
2021/06/02 04:28:16;;;;;;;3.10;1.60;;;13.10;99.90;;;;;;5053250;28;20931;-80
2021/06/02 04:30:49;;;;;;;2.93;1.60;;;13.20;99.90;;;;;;5050239;28;20247;-80
2021/06/02 04:33:23;;;;;;;2.67;1.70;;;13.10;99.90;;;;;;5052490;28;20273;-80
2021/06/02 04:35:57;;;;;;;5.03;1.97;;;13.30;99.90;;;;;;5050349;28;20714;-80
2021/06/02 04:38:31;;;;;;;3.30;1.80;;;13.30;99.90;;;;;;5049420;28;20245;-80
2021/06/02 04:41:02;;;;;;;2.83;1.90;;;13.40;99.90;;;;;;5049973;28;20243;-81
2021/06/02 04:43:32;;;;;;;2.53;1.70;;;13.40;99.90;;;;;;5067797;28;20238;-80
2021/06/02 04:46:01;;;;;;;4.63;1.87;;;13.40;99.90;;;;;;5049796;28;20262;-80
2021/06/02 04:48:29;;;;;;;2.57;1.83;;;13.40;99.90;;;;;;5049014;28;20231;-80
2021/06/02 04:51:14;;;;;;;3.27;1.87;;;13.50;99.90;;;;;;5065103;28;20244;-80
2021/06/02 04:54:34;;;;;;;2.40;1.90;;;13.60;99.90;;;;;;5051340;28;20266;-80
2021/06/02 04:57:34;;;;;;;2.90;1.90;;;13.70;99.90;;;;;;5051377;28;20239;-80
2021/06/02 05:00:22;;;;;;;5.30;2.23;;;13.70;99.90;;;;;;5069390;28;20235;-81
2021/06/02 05:03:26;;;;;;;2.90;1.90;;;13.90;99.90;;;;;;5067677;28;20263;-79
2021/06/02 05:06:34;;;;;;;3.03;1.90;;;13.90;99.90;;;;;;5069181;28;20291;-80
2021/06/02 05:09:07;;;;;;;4.23;2.00;;;14.00;99.90;;;;;;5037843;28;20266;-80
2021/06/02 05:12:19;;;;;;;4.03;2.00;;;14.00;99.90;;;;;;5049101;28;20239;-81
2021/06/02 05:15:35;;;;;;;3.70;2.00;;;14.10;99.90;;;;;;5048576;28;20238;-80
2021/06/02 05:18:34;;;;;;;2.77;2.00;;;14.30;99.90;;;;;;5066912;28;20330;-81
2021/06/02 05:25:20;;;;;;;2.97;2.10;;;14.60;99.90;;;;;;5037642;28;20650;-81
2021/06/02 05:28:21;;;;;;;3.10;1.67;;;14.60;99.90;;;;;;5039380;28;20242;-81
2021/06/02 05:31:47;;;;;;;2.73;1.93;;;14.80;99.90;;;;;;5047920;28;20714;-79
2021/06/02 05:34:53;;;;;;;3.67;1.80;;;15.00;99.90;;;;;;5009695;28;20232;-79
2021/06/02 05:37:59;;;;;;;3.40;2.30;;;15.00;99.90;;;;;;4980761;28;20267;-79
2021/06/02 05:41:03;;;;;;;3.80;2.20;;;15.10;99.90;;;;;;5044994;28;20304;-80
2021/06/02 05:44:05;;;;;;;2.90;1.80;;;15.00;99.90;;;;;;5051688;28;20227;-80
2021/06/02 05:47:20;;;;;;;4.40;2.30;;;15.10;99.90;;;;;;5043500;28;20239;-80
2021/06/02 05:50:13;;;;;;;5.70;2.20;;;15.40;99.90;;;;;;5045142;28;20239;-79
2021/06/02 05:53:14;;;;;;;3.43;2.13;;;15.60;99.90;;;;;;5044946;28;20231;-80
2021/06/02 05:56:03;;;;;;;3.53;2.10;;;15.70;99.90;;;;;;5029765;28;20248;-79
2021/06/02 05:59:02;;;;;;;5.80;2.43;;;15.60;99.90;;;;;;5051409;28;20579;-79
2021/06/02 06:01:58;;;;;;;3.40;2.17;;;15.70;99.90;;;;;;5054250;28;20231;-79
2021/06/02 06:05:05;;;;;;;5.00;2.00;;;15.90;99.90;;;;;;5063743;28;20322;-79
2021/06/02 06:08:11;;;;;;;3.27;2.10;;;15.80;99.90;;;;;;5049643;28;20228;-79
2021/06/02 06:10:59;;;;;;;2.73;2.00;;;15.70;99.90;;;;;;5057623;28;20242;-79
2021/06/02 06:14:02;;;;;;;5.43;2.20;;;15.80;99.90;;;;;;5073878;28;20219;-79
2021/06/02 06:16:51;;;;;;;3.83;2.20;;;16.00;99.90;;;;;;5038304;28;20699;-79
2021/06/02 06:19:52;;;;;;;4.57;2.10;;;16.00;99.90;;;;;;5050486;28;20625;-79
2021/06/02 06:22:47;;;;;;;3.30;2.37;;;16.30;99.90;;;;;;5052864;28;20239;-80
2021/06/02 06:25:20;;;;;;;3.13;2.03;;;16.40;99.90;;;;;;5049987;28;20274;-78
2021/06/02 06:27:55;;;;;;;3.93;1.93;;;16.50;99.90;;;;;;5049271;28;20238;-79
2021/06/02 06:30:26;;;;;;;3.50;2.03;;;16.30;99.90;;;;;;5050179;28;20236;-79
2021/06/02 06:32:56;;;;;;;7.50;2.60;;;16.40;99.90;;;;;;5050555;28;20267;-79
2021/06/02 06:35:25;;;;;;;3.77;2.10;;;16.80;99.90;;;;;;5048671;28;20679;-80
2021/06/02 06:37:56;;;;;;;3.13;2.23;;;17.00;99.90;;;;;;5051278;28;20715;-79
2021/06/02 06:40:29;;;;;;;5.27;2.37;;;16.90;99.90;;;;;;5047805;28;20240;-80
2021/06/02 06:43:00;;;;;;;2.90;2.07;;;16.70;99.90;;;;;;5049151;28;20506;-80
2021/06/02 06:45:30;;;;;;;4.87;1.90;;;16.80;99.90;;;;;;5040451;28;20327;-79
2021/06/02 06:48:00;;;;;;;6.17;2.23;;;16.90;99.90;;;;;;5058440;28;20250;-80
2021/06/02 06:50:29;;;;;;;4.33;2.27;;;17.00;99.90;;;;;;5052428;28;20224;-80
2021/06/02 06:53:03;;;;;;;4.87;2.10;;;17.20;99.90;;;;;;5049122;28;20739;-80
2021/06/02 06:55:32;;;;;;;5.90;2.30;;;17.30;99.90;;;;;;5045032;28;20243;-80
2021/06/02 06:58:00;;;;;;;6.57;2.03;;;17.40;99.90;;;;;;5049907;28;20265;-80
2021/06/02 07:00:31;;;;;;;5.70;2.30;;;17.40;99.90;;;;;;5049183;28;20236;-80
2021/06/02 07:02:59;;;;;;;6.17;2.27;;;17.50;99.90;;;;;;5048560;28;20239;-81
2021/06/02 07:05:29;;;;;;;5.07;2.03;;;17.90;99.90;;;;;;5047127;28;20238;-80
2021/06/02 07:07:59;;;;;;;7.30;2.43;;;18.30;99.90;;;;;;5046513;28;20244;-79
2021/06/02 07:10:29;;;;;;;3.57;2.30;;;18.10;99.90;;;;;;5048423;28;20255;-81
2021/06/02 07:12:58;;;;;;;6.57;2.10;;;18.10;99.90;;;;;;5045545;28;20973;-80
2021/06/02 07:15:26;;;;;;;4.00;2.20;;;17.90;99.90;;;;;;5041599;28;20317;-80
2021/06/02 07:17:56;;;;;;;4.00;2.30;;;18.10;99.90;;;;;;5044898;28;20243;-80
2021/06/02 07:20:26;;;;;;;5.03;2.17;;;18.20;99.90;;;;;;5047161;28;20247;-80
2021/06/02 07:22:54;;;;;;;3.30;1.87;;;18.20;99.90;;;;;;5062024;28;20236;-80
2021/06/02 07:25:26;;;;;;;3.60;2.10;;;18.10;99.90;;;;;;5038439;28;20333;-80
2021/06/02 07:27:56;;;;;;;4.53;2.00;;;18.20;99.90;;;;;;5048052;28;21477;-80
2021/06/02 07:30:26;;;;;;;4.87;2.07;;;18.50;99.90;;;;;;5046825;28;20234;-79
2021/06/02 07:32:55;;;;;;;4.80;2.20;;;18.30;99.90;;;;;;5045600;28;20238;-80
2021/06/02 07:35:24;;;;;;;4.60;2.13;;;18.30;99.90;;;;;;5056894;28;20333;-80
2021/06/02 07:37:52;;;;;;;5.50;2.00;;;18.20;99.90;;;;;;5064226;28;20241;-80
2021/06/02 07:40:20;;;;;;;5.93;2.00;;;18.60;99.90;;;;;;5046714;28;20661;-80
2021/06/02 07:42:49;;;;;;;4.43;2.00;;;18.60;99.90;;;;;;5049252;28;20258;-81
2021/06/02 07:45:18;;;;;;;2.70;1.80;;;18.80;99.90;;;;;;5042229;28;20600;-81
2021/06/02 07:47:47;;;;;;;4.93;1.83;;;18.90;99.90;;;;;;5044673;28;20247;-80
2021/06/02 07:50:15;;;;;;;4.13;2.00;;;19.00;99.90;;;;;;5046507;28;20252;-81
2021/06/02 07:52:43;;;;;;;3.00;1.90;;;18.80;99.90;;;;;;5047505;28;20706;-80
2021/06/02 07:55:12;;;;;;;3.20;2.00;;;18.70;99.90;;;;;;5047998;28;20233;-81
2021/06/02 07:57:39;;;;;;;4.77;2.30;;;18.70;99.90;;;;;;5049305;28;20234;-80
2021/06/02 08:00:11;;;;;;;4.17;2.10;;;18.80;99.90;;;;;;5047552;28;20242;-80
2021/06/02 08:02:41;;;;;;;3.20;2.03;;;19.00;99.90;;;;;;5046701;28;20242;-80
2021/06/02 08:05:10;;;;;;;2.43;2.10;;;19.00;99.90;;;;;;5049423;28;20237;-80
2021/06/02 08:07:43;;;;;;;4.07;2.13;;;19.00;99.90;;;;;;5052384;28;20762;-80
2021/06/02 08:10:18;;;;;;;3.87;2.10;;;19.30;99.90;;;;;;5071433;28;20243;-80
2021/06/02 08:12:47;;;;;;;2.80;2.00;;;19.30;99.90;;;;;;5062589;28;20248;-80
2021/06/02 08:15:18;;;;;;;4.97;2.20;;;19.30;99.90;;;;;;5048324;28;20229;-80
2021/06/02 08:17:47;;;;;;;3.83;2.27;;;19.70;99.90;;;;;;5045605;28;20299;-80
2021/06/02 08:20:16;;;;;;;3.17;2.00;;;19.60;99.90;;;;;;5047253;28;20241;-81
2021/06/02 08:22:45;;;;;;;4.33;1.93;;;19.50;99.90;;;;;;5057434;28;20701;-80
2021/06/02 08:25:16;;;;;;;3.47;2.20;;;19.60;99.90;;;;;;5057732;28;20242;-80
2021/06/02 08:27:44;;;;;;;5.20;2.27;;;19.50;99.90;;;;;;5047152;28;20247;-81
2021/06/02 08:30:14;;;;;;;5.53;2.40;;;19.50;99.90;;;;;;5018122;28;21301;-80
2021/06/02 08:32:44;;;;;;;5.77;2.83;;;19.20;99.90;;;;;;5009421;28;20856;-82
2021/06/02 08:35:15;;;;;;;6.20;2.50;;;19.10;99.90;;;;;;5012328;28;20237;-80
2021/06/02 08:37:43;;;;;;;5.70;2.10;;;19.40;99.90;;;;;;5065403;28;20709;-79
2021/06/02 08:40:12;;;;;;;6.70;2.17;;;19.50;99.90;;;;;;5065474;28;20256;-79
2021/06/02 08:42:41;;;;;;;3.13;2.23;;;19.50;99.90;;;;;;5036621;28;20238;-79
2021/06/02 08:45:11;;;;;;;4.00;2.40;;;19.70;99.90;;;;;;5047205;28;20237;-80
2021/06/02 08:47:39;;;;;;;5.57;2.50;;;19.40;99.90;;;;;;5050222;28;20233;-80
2021/06/02 08:50:12;;;;;;;4.27;2.20;;;19.60;99.90;;;;;;5046948;28;20273;-80
2021/06/02 08:52:41;;;;;;;2.50;2.17;;;19.90;99.90;;;;;;5055365;28;20242;-80
2021/06/02 08:55:11;;;;;;;3.77;2.20;;;20.30;99.90;;;;;;5049183;28;20333;-80
2021/06/02 08:57:40;;;;;;;3.80;2.17;;;20.10;99.90;;;;;;5046259;28;20246;-80
2021/06/02 09:00:10;;;;;;;4.23;2.50;;;20.20;99.90;;;;;;5046515;28;20258;-80
2021/06/02 09:02:38;;;;;;;3.40;2.20;;;20.10;99.90;;;;;;5054233;28;20237;-79
2021/06/02 09:05:08;;;;;;;5.70;2.27;;;20.30;99.90;;;;;;5049697;28;20242;-80
2021/06/02 09:07:39;;;;;;;4.23;2.40;;;20.30;99.90;;;;;;5049072;28;20231;-80
2021/06/02 09:10:09;;;;;;;7.10;2.37;;;20.50;99.90;;;;;;5046094;28;20250;-81
2021/06/02 09:12:39;;;;;;;4.73;2.37;;;20.60;99.90;;;;;;5047492;28;20364;-80
2021/06/02 09:15:09;;;;;;;5.57;2.30;;;20.80;99.90;;;;;;5046603;28;20335;-80
2021/06/02 09:17:56;;;;;;;4.57;2.40;;;21.10;99.90;;;;;;5056633;28;20247;-80
2021/06/02 09:20:36;;;;;;;3.87;2.30;;;20.90;99.90;;;;;;5040493;28;20238;-80
2021/06/02 09:23:30;;;;;;;4.03;2.50;;;20.70;99.90;;;;;;5044504;28;20698;-80
2021/06/02 09:26:32;;;;;;;3.73;2.53;;;20.50;99.90;;;;;;5040038;28;20628;-80
2021/06/02 09:29:09;;;;;;;4.87;2.20;;;20.50;99.90;;;;;;4987437;28;20236;-80
2021/06/02 09:31:38;;;;;;;5.77;2.60;;;20.80;99.90;;;;;;5003498;28;20266;-80
2021/06/02 09:34:16;;;;;;;4.00;2.10;;;20.90;99.90;;;;;;5027602;28;20251;-80
2021/06/02 09:36:47;;;;;;;3.93;2.37;;;20.90;99.90;;;;;;5046667;28;20238;-81
2021/06/02 09:39:21;;;;;;;5.30;2.50;;;21.10;99.90;;;;;;5046631;28;20239;-80
2021/06/02 09:41:51;;;;;;;4.23;2.30;;;21.10;99.90;;;;;;5046145;28;20242;-81
2021/06/02 09:44:20;;;;;;;4.00;2.50;;;21.40;99.90;;;;;;5046526;28;20933;-80
2021/06/02 09:46:59;;;;;;;4.47;2.40;;;21.50;99.90;;;;;;5047895;28;20264;-81
2021/06/02 09:49:29;;;;;;;3.30;2.40;;;21.40;99.90;;;;;;5038262;28;20330;-81
2021/06/02 09:51:56;;;;;;;5.73;2.53;;;21.40;99.90;;;;;;5046380;28;20841;-80
2021/06/02 09:54:27;;;;;;;7.57;2.70;;;21.50;99.90;;;;;;5048419;28;20621;-80
2021/06/02 09:56:55;;;;;;;4.23;2.20;;;21.50;99.90;;;;;;5052044;28;20258;-80
2021/06/02 09:59:22;;;;;;;3.87;2.60;;;21.90;99.90;;;;;;5047925;28;20228;-80
2021/06/02 10:01:56;;;;;;;2.87;2.50;;;21.80;99.90;;;;;;5051412;28;20917;-80
2021/06/02 10:04:32;;;;;;;5.27;2.67;;;21.80;99.90;;;;;;5053945;28;20245;-81
2021/06/02 10:07:01;;;;;;;4.90;2.57;;;21.80;99.90;;;;;;5051201;28;20231;-80
2021/06/02 10:09:32;;;;;;;2.97;2.47;;;21.90;99.90;;;;;;5047648;28;20318;-81
2021/06/02 10:12:04;;;;;;;3.93;2.50;;;22.20;99.90;;;;;;5050593;28;20311;-81
2021/06/02 10:14:41;;;;;;;3.00;2.40;;;22.10;99.90;;;;;;5045798;28;20237;-81
2021/06/02 10:17:25;;;;;;;3.83;2.47;;;22.20;99.90;;;;;;5044832;28;20248;-80
2021/06/02 10:19:57;;;;;;;3.27;2.30;;;22.10;99.90;;;;;;5061655;28;20263;-80
2021/06/02 10:22:27;;;;;;;3.47;2.50;;;21.80;99.90;;;;;;5055151;28;20271;-80
2021/06/02 10:24:58;;;;;;;5.07;2.80;;;22.40;99.90;;;;;;5047170;28;20318;-81
2021/06/02 10:27:27;;;;;;;3.43;3.00;;;22.40;99.90;;;;;;5058973;28;20274;-80
2021/06/02 10:29:59;;;;;;;4.27;2.97;;;22.30;99.90;;;;;;5049402;28;20231;-83
2021/06/02 10:32:30;;;;;;;4.90;2.80;;;22.10;99.90;;;;;;5059890;28;20227;-83
2021/06/02 10:34:58;;;;;;;6.53;2.73;;;22.20;99.90;;;;;;5043375;28;20228;-83
2021/06/02 10:37:26;;;;;;;4.07;2.50;;;22.50;99.90;;;;;;5054072;28;20261;-83
2021/06/02 10:40:00;;;;;;;5.47;3.03;;;22.20;99.90;;;;;;5064116;28;20224;-82
2021/06/02 10:42:40;;;;;;;4.60;3.13;;;22.30;99.90;;;;;;5038173;28;20481;-84
2021/06/02 10:45:35;;;;;;;3.93;3.10;;;22.60;99.90;;;;;;5049806;28;20792;-86
2021/06/02 10:48:06;;;;;;;5.73;3.53;;;22.70;99.90;;;;;;5063315;28;20234;-87
2021/06/02 10:50:38;;;;;;;3.10;2.80;;;22.50;99.90;;;;;;5050246;28;20794;-88
2021/06/02 10:53:25;;;;;;;6.97;3.00;;;22.30;99.90;;;;;;5052421;28;20285;-88
2021/06/02 10:55:59;;;;;;;4.23;3.03;;;22.40;99.90;;;;;;5048359;28;20236;-82
2021/06/02 10:58:30;;;;;;;3.60;2.73;;;22.30;99.90;;;;;;5051686;28;20230;-82
2021/06/02 11:01:17;;;;;;;3.83;2.50;;;22.30;99.90;;;;;;5052895;28;20240;-82
2021/06/02 11:03:48;;;;;;;4.40;2.50;;;22.40;99.90;;;;;;5051742;28;20239;-82
2021/06/02 11:06:35;;;;;;;3.37;2.20;;;22.60;99.90;;;;;;5048380;28;20259;-81
2021/06/02 11:09:20;;;;;;;3.57;2.60;;;22.60;99.90;;;;;;5048820;28;20232;-82
2021/06/02 11:12:04;;;;;;;5.13;2.87;;;22.40;99.90;;;;;;5037032;28;20232;-82
2021/06/02 11:14:32;;;;;;;2.80;2.20;;;22.40;99.90;;;;;;5039763;28;20236;-81
2021/06/02 11:17:10;;;;;;;2.53;2.27;;;22.50;99.90;;;;;;5040260;28;20607;-81
2021/06/02 11:19:42;;;;;;;6.77;2.77;;;22.50;99.90;;;;;;5041745;28;20239;-81
2021/06/02 11:22:17;;;;;;;6.17;2.50;;;22.60;99.90;;;;;;5047800;28;20294;-81
2021/06/02 11:24:53;;;;;;;4.73;2.40;;;22.60;99.90;;;;;;5048111;28;20238;-80
2021/06/02 11:27:50;;;;;;;4.90;2.60;;;22.90;99.90;;;;;;5050292;28;20235;-81
2021/06/02 11:30:24;;;;;;;4.10;2.73;;;22.90;99.90;;;;;;5000931;28;20236;-81
2021/06/02 11:33:11;;;;;;;3.10;2.57;;;23.00;99.90;;;;;;5047932;28;20602;-81
2021/06/02 11:35:59;;;;;;;5.90;2.67;;;23.00;99.90;;;;;;5069768;28;20286;-81
2021/06/02 11:38:28;;;;;;;4.10;2.60;;;22.80;99.90;;;;;;5052055;28;20273;-81
2021/06/02 11:40:56;;;;;;;2.93;2.57;;;22.90;99.90;;;;;;5049947;28;20314;-82
2021/06/02 11:43:25;;;;;;;3.40;2.67;;;23.20;99.90;;;;;;5064864;28;20228;-81
2021/06/02 11:45:56;;;;;;;6.23;2.63;;;23.50;99.90;;;;;;5040717;28;20631;-81
2021/06/02 11:48:26;;;;;;;4.60;2.40;;;23.10;99.90;;;;;;5047195;28;21021;-81
2021/06/02 11:50:55;;;;;;;4.37;2.40;;;23.40;99.90;;;;;;5048139;28;20238;-80
2021/06/02 11:53:35;;;;;;;3.73;2.63;;;23.40;99.90;;;;;;5064924;28;20240;-81
2021/06/02 11:56:03;;;;;;;5.23;2.60;;;23.10;99.90;;;;;;5045778;28;20236;-81
2021/06/02 11:58:35;;;;;;;3.83;2.77;;;22.80;99.90;;;;;;5048926;28;20232;-81
2021/06/02 12:01:03;;;;;;;5.83;2.93;;;23.00;99.90;;;;;;5053302;28;20246;-81
2021/06/02 12:03:31;;;;;;;2.93;2.47;;;23.00;99.90;;;;;;5048267;28;20223;-81
2021/06/02 12:05:59;;;;;;;3.43;2.50;;;22.80;99.90;;;;;;5063048;28;20232;-81
2021/06/02 12:08:27;;;;;;;4.33;2.50;;;22.60;99.90;;;;;;5046684;28;20311;-81
2021/06/02 12:10:57;;;;;;;3.80;2.40;;;22.60;99.90;;;;;;5046864;28;20235;-82
2021/06/02 12:13:27;;;;;;;4.17;2.50;;;22.70;99.90;;;;;;5048033;28;20252;-83
2021/06/02 12:15:59;;;;;;;4.17;2.60;;;22.70;99.90;;;;;;5048255;28;20322;-82
2021/06/02 12:18:35;;;;;;;5.17;2.70;;;22.80;99.90;;;;;;5050393;28;20235;-81
2021/06/02 12:21:18;;;;;;;4.13;2.70;;;22.70;99.90;;;;;;5043502;28;20239;-81
2021/06/02 12:23:54;;;;;;;4.73;2.60;;;22.50;99.90;;;;;;5037793;28;20237;-81
2021/06/02 12:26:28;;;;;;;5.23;2.90;;;22.70;99.90;;;;;;5060036;28;20236;-82
2021/06/02 12:28:58;;;;;;;4.83;2.70;;;23.10;99.90;;;;;;5046845;28;20821;-81
2021/06/02 12:31:41;;;;;;;3.77;2.70;;;23.20;99.90;;;;;;5036359;28;20236;-82
2021/06/02 12:34:13;;;;;;;6.13;3.17;;;23.20;99.90;;;;;;5044998;28;20297;-82
2021/06/02 12:36:49;;;;;;;4.87;2.90;;;22.90;99.90;;;;;;5041283;28;20306;-82
2021/06/02 12:39:18;;;;;;;5.60;2.90;;;22.90;99.90;;;;;;5046001;28;20756;-81
2021/06/02 12:41:48;;;;;;;5.23;2.93;;;23.00;99.90;;;;;;5042621;28;20592;-82
2021/06/02 12:44:21;;;;;;;3.57;2.80;;;22.90;99.90;;;;;;5041904;28;20243;-82
2021/06/02 12:46:58;;;;;;;3.10;2.70;;;23.10;99.90;;;;;;5047271;28;20298;-81
2021/06/02 12:49:26;;;;;;;3.73;3.13;;;23.30;99.90;;;;;;5033329;28;20227;-81
2021/06/02 12:51:57;;;;;;;3.83;2.97;;;23.30;99.90;;;;;;5038817;28;20260;-83
2021/06/02 12:54:27;;;;;;;4.80;2.70;;;23.50;99.90;;;;;;5042908;28;20232;-83
2021/06/02 12:56:55;;;;;;;6.30;3.40;;;23.70;99.90;;;;;;5042117;28;20236;-82
2021/06/02 12:59:27;;;;;;;5.20;3.10;;;23.60;99.90;;;;;;5043977;28;20246;-82
2021/06/02 13:01:59;;;;;;;5.07;3.73;;;23.50;99.90;;;;;;5040026;28;20596;-82
2021/06/02 13:04:27;;;;;;;3.40;3.10;;;23.20;99.90;;;;;;5026570;28;20241;-82
2021/06/02 13:06:56;;;;;;;5.23;3.57;;;23.00;99.90;;;;;;5040356;28;20243;-81
2021/06/02 13:09:25;;;;;;;5.05;3.75;;;23.00;99.90;;;;;;5059706;28;20775;-84
2021/06/02 13:11:54;;;;;;;6.40;3.47;;;23.10;99.90;;;;;;5044044;28;20236;-85
2021/06/02 13:14:33;;;;;;;3.93;3.30;;;23.10;99.90;;;;;;5044330;28;20236;-85
2021/06/02 13:17:03;;;;;;;6.00;3.27;;;23.20;99.90;;;;;;5063845;28;20618;-85
2021/06/02 13:19:35;;;;;;;5.70;3.30;;;23.10;99.90;;;;;;5044800;28;20246;-83
2021/06/02 13:22:04;;;;;;;6.00;3.93;;;23.10;99.90;;;;;;5049132;28;20246;-80
2021/06/02 13:24:37;;;;;;;7.77;3.40;;;23.20;99.90;;;;;;5041462;28;20243;-80
2021/06/02 13:27:06;;;;;;;5.93;3.60;;;23.30;99.90;;;;;;5044735;28;20231;-80
2021/06/02 13:29:36;;;;;;;3.67;3.27;;;23.50;99.90;;;;;;5058694;28;20654;-86
2021/06/02 13:32:14;;;;;;;4.50;3.40;;;23.60;99.90;;;;;;5073109;28;20311;-83
2021/06/02 13:34:43;;;;;;;4.73;3.40;;;23.50;99.90;;;;;;5069552;28;20227;-81
2021/06/02 13:37:14;;;;;;;4.07;3.40;;;23.40;99.90;;;;;;5051932;28;20686;-82
2021/06/02 13:40:02;;;;;;;3.93;3.33;;;23.40;99.90;;;;;;5048157;28;20575;-82